sensor_id;sensor_type;location;lat;lon;timestamp;pressure;altitude;pressure_sealevel;temperature;humidity
35758;BME280;21879;50.110;18.900;2023-05-03T00:07:53;99302.20;;;14.42;62.65
35758;BME280;21879;50.110;18.900;2023-05-03T00:18:20;99301.11;;;14.43;62.76
35758;BME280;21879;50.110;18.900;2023-05-03T00:28:46;99296.54;;;14.45;62.83
35758;BME280;21879;50.110;18.900;2023-05-03T00:39:12;99291.09;;;14.47;62.84
35758;BME280;21879;50.110;18.900;2023-05-03T00:49:37;99292.98;;;14.49;62.84
35758;BME280;21879;50.110;18.900;2023-05-03T01:00:05;99288.56;;;14.41;62.84
35758;BME280;21879;50.110;18.900;2023-05-03T01:10:37;99289.73;;;14.33;62.81
35758;BME280;21879;50.110;18.900;2023-05-03T01:21:07;99298.23;;;14.15;63.26
35758;BME280;21879;50.110;18.900;2023-05-03T01:31:40;99296.80;;;14.04;63.50
35758;BME280;21879;50.110;18.900;2023-05-03T01:42:07;99300.95;;;14.08;63.78
35758;BME280;21879;50.110;18.900;2023-05-03T01:52:32;99304.13;;;14.17;63.92
35758;BME280;21879;50.110;18.900;2023-05-03T02:02:58;99302.52;;;14.20;63.76
35758;BME280;21879;50.110;18.900;2023-05-03T02:13:24;99301.02;;;14.15;63.82
35758;BME280;21879;50.110;18.900;2023-05-03T02:23:50;99301.69;;;14.17;63.96
35758;BME280;21879;50.110;18.900;2023-05-03T02:34:17;99305.60;;;14.25;64.01
35758;BME280;21879;50.110;18.900;2023-05-03T02:44:44;99312.05;;;14.37;63.93
35758;BME280;21879;50.110;18.900;2023-05-03T02:55:10;99312.40;;;14.51;63.81
35758;BME280;21879;50.110;18.900;2023-05-03T03:05:36;99321.11;;;14.65;63.68
35758;BME280;21879;50.110;18.900;2023-05-03T03:16:02;99326.59;;;14.61;63.34
35758;BME280;21879;50.110;18.900;2023-05-03T03:26:28;99325.49;;;14.64;63.42
35758;BME280;21879;50.110;18.900;2023-05-03T03:36:54;99330.20;;;14.66;63.57
35758;BME280;21879;50.110;18.900;2023-05-03T03:47:20;99332.16;;;14.52;63.35
35758;BME280;21879;50.110;18.900;2023-05-03T03:57:47;99334.54;;;14.44;63.38
35758;BME280;21879;50.110;18.900;2023-05-03T04:08:13;99337.58;;;14.38;63.56
35758;BME280;21879;50.110;18.900;2023-05-03T04:18:38;99349.63;;;14.29;63.81
35758;BME280;21879;50.110;18.900;2023-05-03T04:29:04;99361.44;;;14.34;63.99
35758;BME280;21879;50.110;18.900;2023-05-03T04:39:30;99370.62;;;14.41;64.19
35758;BME280;21879;50.110;18.900;2023-05-03T04:49:57;99378.40;;;14.47;63.99
35758;BME280;21879;50.110;18.900;2023-05-03T05:00:23;99383.66;;;14.47;63.69
35758;BME280;21879;50.110;18.900;2023-05-03T05:10:49;99391.67;;;14.09;63.49
35758;BME280;21879;50.110;18.900;2023-05-03T05:21:15;99400.59;;;13.66;63.78
35758;BME280;21879;50.110;18.900;2023-05-03T05:31:40;99417.23;;;13.42;64.16
35758;BME280;21879;50.110;18.900;2023-05-03T05:42:07;99428.42;;;13.20;64.30
35758;BME280;21879;50.110;18.900;2023-05-03T05:52:33;99435.94;;;12.97;64.04
35758;BME280;21879;50.110;18.900;2023-05-03T06:02:59;99443.80;;;12.68;64.10
35758;BME280;21879;50.110;18.900;2023-05-03T06:13:24;99452.56;;;12.62;64.47
35758;BME280;21879;50.110;18.900;2023-05-03T06:23:50;99468.34;;;12.49;64.47
35758;BME280;21879;50.110;18.900;2023-05-03T06:34:17;99477.59;;;12.47;64.47
35758;BME280;21879;50.110;18.900;2023-05-03T06:44:45;99477.28;;;12.40;64.31
35758;BME280;21879;50.110;18.900;2023-05-03T06:55:11;99485.31;;;12.37;64.17
35758;BME280;21879;50.110;18.900;2023-05-03T07:05:38;99490.36;;;12.39;64.09
35758;BME280;21879;50.110;18.900;2023-05-03T07:16:04;99497.86;;;12.39;63.63
35758;BME280;21879;50.110;18.900;2023-05-03T07:26:30;99503.27;;;12.43;63.26
35758;BME280;21879;50.110;18.900;2023-05-03T07:36:56;99506.71;;;12.49;63.12
35758;BME280;21879;50.110;18.900;2023-05-03T07:47:22;99514.03;;;12.53;62.59
35758;BME280;21879;50.110;18.900;2023-05-03T07:57:48;99521.89;;;12.51;62.06
35758;BME280;21879;50.110;18.900;2023-05-03T08:08:14;99518.92;;;12.50;62.00
35758;BME280;21879;50.110;18.900;2023-05-03T08:18:41;99516.09;;;12.59;61.66
35758;BME280;21879;50.110;18.900;2023-05-03T08:29:07;99519.20;;;12.63;60.70
35758;BME280;21879;50.110;18.900;2023-05-03T08:39:34;99523.55;;;12.70;60.06
35758;BME280;21879;50.110;18.900;2023-05-03T08:50:00;99532.79;;;12.70;59.65
35758;BME280;21879;50.110;18.900;2023-05-03T09:00:29;99539.37;;;12.80;59.99
35758;BME280;21879;50.110;18.900;2023-05-03T09:10:55;99546.80;;;12.93;60.47
35758;BME280;21879;50.110;18.900;2023-05-03T09:21:21;99549.23;;;12.97;60.14
35758;BME280;21879;50.110;18.900;2023-05-03T09:31:58;99552.20;;;12.96;59.40
35758;BME280;21879;50.110;18.900;2023-05-03T09:42:25;99560.59;;;12.93;59.28
35758;BME280;21879;50.110;18.900;2023-05-03T09:52:52;99567.44;;;12.87;58.66
35758;BME280;21879;50.110;18.900;2023-05-03T10:03:23;99565.01;;;12.81;58.55
35758;BME280;21879;50.110;18.900;2023-05-03T10:13:53;99563.80;;;12.79;58.04
35758;BME280;21879;50.110;18.900;2023-05-03T10:24:19;99567.98;;;12.81;57.91
35758;BME280;21879;50.110;18.900;2023-05-03T10:34:45;99565.73;;;12.76;57.60
35758;BME280;21879;50.110;18.900;2023-05-03T10:45:22;99566.08;;;12.77;58.11
35758;BME280;21879;50.110;18.900;2023-05-03T10:56:02;99563.20;;;12.94;58.27
35758;BME280;21879;50.110;18.900;2023-05-03T11:06:33;99565.79;;;13.02;58.11
35758;BME280;21879;50.110;18.900;2023-05-03T11:17:00;99562.46;;;13.01;57.99
35758;BME280;21879;50.110;18.900;2023-05-03T11:27:26;99562.45;;;13.05;58.10
35758;BME280;21879;50.110;18.900;2023-05-03T11:37:52;99562.54;;;13.20;58.09
35758;BME280;21879;50.110;18.900;2023-05-03T11:48:18;99560.24;;;13.28;57.76
35758;BME280;21879;50.110;18.900;2023-05-03T11:58:54;99555.20;;;13.21;57.30
35758;BME280;21879;50.110;18.900;2023-05-03T12:09:25;99558.20;;;13.15;57.17
35758;BME280;21879;50.110;18.900;2023-05-03T12:19:52;99549.97;;;13.19;56.88
35758;BME280;21879;50.110;18.900;2023-05-03T12:30:43;99544.03;;;13.18;56.48
35758;BME280;21879;50.110;18.900;2023-05-03T12:41:10;99537.54;;;13.27;56.39
35758;BME280;21879;50.110;18.900;2023-05-03T12:51:46;99532.39;;;13.38;56.22
35758;BME280;21879;50.110;18.900;2023-05-03T13:02:26;99531.42;;;13.50;56.67
35758;BME280;21879;50.110;18.900;2023-05-03T13:13:11;99535.84;;;13.44;56.00
35758;BME280;21879;50.110;18.900;2023-05-03T13:23:37;99522.26;;;13.40;56.01
35758;BME280;21879;50.110;18.900;2023-05-03T13:34:03;99519.34;;;13.54;56.02
35758;BME280;21879;50.110;18.900;2023-05-03T13:44:30;99509.78;;;13.67;56.17
35758;BME280;21879;50.110;18.900;2023-05-03T13:54:56;99511.08;;;13.79;55.76
35758;BME280;21879;50.110;18.900;2023-05-03T14:05:24;99500.41;;;13.78;55.48
35758;BME280;21879;50.110;18.900;2023-05-03T14:15:50;99494.24;;;13.85;55.22
35758;BME280;21879;50.110;18.900;2023-05-03T14:26:16;99496.63;;;13.90;54.60
35758;BME280;21879;50.110;18.900;2023-05-03T14:36:43;99495.25;;;13.89;54.06
35758;BME280;21879;50.110;18.900;2023-05-03T14:47:09;99494.11;;;13.98;53.92
35758;BME280;21879;50.110;18.900;2023-05-03T14:57:35;99498.02;;;14.07;53.55
35758;BME280;21879;50.110;18.900;2023-05-03T15:08:01;99499.70;;;14.14;53.51
35758;BME280;21879;50.110;18.900;2023-05-03T15:18:27;99498.17;;;14.09;52.35
35758;BME280;21879;50.110;18.900;2023-05-03T15:28:53;99504.98;;;13.94;51.62
35758;BME280;21879;50.110;18.900;2023-05-03T15:39:19;99499.44;;;13.90;51.22
35758;BME280;21879;50.110;18.900;2023-05-03T15:49:44;99501.21;;;13.87;51.23
35758;BME280;21879;50.110;18.900;2023-05-03T16:00:13;99498.30;;;13.98;51.50
35758;BME280;21879;50.110;18.900;2023-05-03T16:10:39;99495.10;;;14.03;51.61
35758;BME280;21879;50.110;18.900;2023-05-03T16:21:06;99498.67;;;13.95;51.34
35758;BME280;21879;50.110;18.900;2023-05-03T16:31:32;99496.24;;;14.11;52.70
35758;BME280;21879;50.110;18.900;2023-05-03T16:41:58;99490.08;;;14.29;53.37
35758;BME280;21879;50.110;18.900;2023-05-03T16:52:24;99488.91;;;14.54;53.87
35758;BME280;21879;50.110;18.900;2023-05-03T17:02:52;99489.27;;;14.68;53.90
35758;BME280;21879;50.110;18.900;2023-05-03T17:13:18;99488.90;;;14.69;53.49
35758;BME280;21879;50.110;18.900;2023-05-03T17:23:44;99494.06;;;14.74;53.42
35758;BME280;21879;50.110;18.900;2023-05-03T17:34:10;99503.15;;;14.76;53.61
35758;BME280;21879;50.110;18.900;2023-05-03T17:44:36;99510.37;;;14.74;54.50
35758;BME280;21879;50.110;18.900;2023-05-03T17:55:02;99512.66;;;14.72;54.27
35758;BME280;21879;50.110;18.900;2023-05-03T18:05:27;99520.85;;;14.75;54.02
35758;BME280;21879;50.110;18.900;2023-05-03T18:15:59;99529.08;;;14.76;54.35
35758;BME280;21879;50.110;18.900;2023-05-03T18:26:25;99534.10;;;14.66;54.69
35758;BME280;21879;50.110;18.900;2023-05-03T18:36:51;99537.41;;;14.52;55.02
35758;BME280;21879;50.110;18.900;2023-05-03T18:47:17;99547.14;;;14.42;55.70
35758;BME280;21879;50.110;18.900;2023-05-03T18:57:45;99547.94;;;14.32;56.14
35758;BME280;21879;50.110;18.900;2023-05-03T19:08:10;99554.87;;;14.23;56.63
35758;BME280;21879;50.110;18.900;2023-05-03T19:18:36;99558.55;;;14.06;56.90
35758;BME280;21879;50.110;18.900;2023-05-03T19:29:05;99554.65;;;13.92;57.49
35758;BME280;21879;50.110;18.900;2023-05-03T19:39:32;99550.68;;;13.88;57.49
35758;BME280;21879;50.110;18.900;2023-05-03T19:50:00;99548.39;;;13.71;57.15
35758;BME280;21879;50.110;18.900;2023-05-03T20:00:27;99557.21;;;13.37;57.45
35758;BME280;21879;50.110;18.900;2023-05-03T20:10:53;99548.95;;;13.17;57.94
35758;BME280;21879;50.110;18.900;2023-05-03T20:21:20;99542.22;;;13.00;57.97
35758;BME280;21879;50.110;18.900;2023-05-03T20:31:45;99542.71;;;12.73;57.77
35758;BME280;21879;50.110;18.900;2023-05-03T20:42:12;99548.39;;;12.50;57.67
35758;BME280;21879;50.110;18.900;2023-05-03T20:52:38;99548.98;;;12.32;58.07
35758;BME280;21879;50.110;18.900;2023-05-03T21:03:04;99546.40;;;12.23;58.18
35758;BME280;21879;50.110;18.900;2023-05-03T21:13:30;99545.55;;;12.10;58.48
35758;BME280;21879;50.110;18.900;2023-05-03T21:23:59;99546.60;;;12.14;58.52
35758;BME280;21879;50.110;18.900;2023-05-03T21:34:25;99536.16;;;11.87;58.14
35758;BME280;21879;50.110;18.900;2023-05-03T21:44:50;99542.27;;;11.64;58.38
35758;BME280;21879;50.110;18.900;2023-05-03T21:55:17;99542.44;;;11.43;58.56
35758;BME280;21879;50.110;18.900;2023-05-03T22:05:42;99537.56;;;11.33;58.44
35758;BME280;21879;50.110;18.900;2023-05-03T22:16:09;99536.50;;;11.19;58.71
35758;BME280;21879;50.110;18.900;2023-05-03T22:26:36;99539.63;;;11.04;58.91
35758;BME280;21879;50.110;18.900;2023-05-03T22:37:02;99535.40;;;10.91;58.70
35758;BME280;21879;50.110;18.900;2023-05-03T22:47:28;99537.61;;;10.73;58.38
35758;BME280;21879;50.110;18.900;2023-05-03T22:57:54;99533.36;;;10.52;58.55
35758;BME280;21879;50.110;18.900;2023-05-03T23:08:20;99532.51;;;10.52;59.15
35758;BME280;21879;50.110;18.900;2023-05-03T23:18:46;99523.77;;;10.48;58.91
35758;BME280;21879;50.110;18.900;2023-05-03T23:29:12;99525.48;;;10.37;58.68
35758;BME280;21879;50.110;18.900;2023-05-03T23:39:43;99526.92;;;10.18;58.22
35758;BME280;21879;50.110;18.900;2023-05-03T23:50:10;99523.55;;;10.06;58.35
